Flight Briefing for CMB839

Departure Arrival
Yokota AFB (RJTY)
Click to view FAA NOTAMS
Elmendorf Air Force Base (PAED)
Click to view FAA NOTAMS
Departure Time Arrival Time
N/A N/A
Aircraft Distance
B757-200SF 3017nm
Departure METAR Arrival METAR
RJTY 271056Z AUTO 21010KT 10SM CLR 24/16 A2989 RMK AO2 SLP119 T02390164 FZRANO $ PAED 271056Z 00000KT 10SM BKN100 07/05 A2980 RMK AO2A SLP087 T00700050
Suggested Route
DAIGO Y889 OATIS OTR3 PUTER A590 HAMND SPAIR GRUUB1


View recent IFR Routes data
Notes
USTRANSCOM CONTRACT FLIGHT

Charts and Procedures

Charts for RJTY
No chart available
Charts for PAED
No chart available

Windy.com Weather Map